sensor_id;sensor_type;location;lat;lon;timestamp;P1;durP1;ratioP1;P2;durP2;ratioP2
44446;SDS011;30152;52.066;5.358;2023-04-24T06:51:04;9.52;;;4.80;;
44446;SDS011;30152;52.066;5.358;2023-04-24T06:53:30;10.02;;;4.80;;
44446;SDS011;30152;52.066;5.358;2023-04-24T06:55:56;10.90;;;5.20;;
44446;SDS011;30152;52.066;5.358;2023-04-24T06:58:22;12.07;;;5.72;;
44446;SDS011;30152;52.066;5.358;2023-04-24T07:00:48;11.30;;;6.10;;
44446;SDS011;30152;52.066;5.358;2023-04-24T07:03:14;16.45;;;7.60;;
44446;SDS011;30152;52.066;5.358;2023-04-24T07:05:39;17.45;;;7.43;;
44446;SDS011;30152;52.066;5.358;2023-04-24T07:08:06;19.45;;;8.50;;
44446;SDS011;30152;52.066;5.358;2023-04-24T07:10:33;23.02;;;9.90;;
44446;SDS011;30152;52.066;5.358;2023-04-24T07:13:00;19.25;;;10.23;;
44446;SDS011;30152;52.066;5.358;2023-04-24T07:15:26;19.25;;;11.20;;
44446;SDS011;30152;52.066;5.358;2023-04-24T07:17:52;19.85;;;10.80;;
44446;SDS011;30152;52.066;5.358;2023-04-24T07:20:18;25.33;;;11.07;;
44446;SDS011;30152;52.066;5.358;2023-04-24T07:22:44;22.40;;;10.60;;
44446;SDS011;30152;52.066;5.358;2023-04-24T07:25:10;21.05;;;10.73;;
44446;SDS011;30152;52.066;5.358;2023-04-24T07:27:35;21.00;;;10.07;;
44446;SDS011;30152;52.066;5.358;2023-04-24T07:30:02;27.17;;;10.35;;
44446;SDS011;30152;52.066;5.358;2023-04-24T07:32:28;24.05;;;11.32;;
44446;SDS011;30152;52.066;5.358;2023-04-24T07:34:55;20.85;;;10.52;;
44446;SDS011;30152;52.066;5.358;2023-04-24T07:37:20;25.27;;;11.02;;
44446;SDS011;30152;52.066;5.358;2023-04-24T07:39:46;23.48;;;10.80;;
44446;SDS011;30152;52.066;5.358;2023-04-24T07:42:11;22.13;;;10.68;;
44446;SDS011;30152;52.066;5.358;2023-04-24T07:44:37;23.60;;;11.13;;
44446;SDS011;30152;52.066;5.358;2023-04-24T07:47:03;20.17;;;10.77;;
44446;SDS011;30152;52.066;5.358;2023-04-24T07:49:29;25.17;;;11.75;;
44446;SDS011;30152;52.066;5.358;2023-04-24T07:51:54;24.67;;;11.70;;
44446;SDS011;30152;52.066;5.358;2023-04-24T07:54:20;24.50;;;12.02;;
44446;SDS011;30152;52.066;5.358;2023-04-24T07:56:46;26.00;;;11.90;;
44446;SDS011;30152;52.066;5.358;2023-04-24T07:59:11;19.63;;;10.35;;
44446;SDS011;30152;52.066;5.358;2023-04-24T08:01:37;20.13;;;10.02;;
44446;SDS011;30152;52.066;5.358;2023-04-24T08:04:03;24.55;;;10.60;;
44446;SDS011;30152;52.066;5.358;2023-04-24T08:06:29;20.27;;;8.95;;
44446;SDS011;30152;52.066;5.358;2023-04-24T08:08:58;21.92;;;8.60;;
44446;SDS011;30152;52.066;5.358;2023-04-24T08:11:24;30.20;;;8.88;;
44446;SDS011;30152;52.066;5.358;2023-04-24T08:13:50;25.60;;;8.15;;
44446;SDS011;30152;52.066;5.358;2023-04-24T08:16:16;22.83;;;8.55;;
44446;SDS011;30152;52.066;5.358;2023-04-24T08:18:42;25.17;;;8.25;;
44446;SDS011;30152;52.066;5.358;2023-04-24T08:21:07;23.02;;;7.95;;
44446;SDS011;30152;52.066;5.358;2023-04-24T08:23:33;19.85;;;6.20;;
44446;SDS011;30152;52.066;5.358;2023-04-24T08:25:59;22.50;;;5.38;;
44446;SDS011;30152;52.066;5.358;2023-04-24T08:28:25;25.95;;;5.85;;
44446;SDS011;30152;52.066;5.358;2023-04-24T08:30:51;29.73;;;5.60;;
44446;SDS011;30152;52.066;5.358;2023-04-24T08:33:19;19.10;;;5.47;;
44446;SDS011;30152;52.066;5.358;2023-04-24T08:35:46;26.08;;;5.05;;
44446;SDS011;30152;52.066;5.358;2023-04-24T08:38:11;18.30;;;5.47;;
44446;SDS011;30152;52.066;5.358;2023-04-24T08:40:37;24.73;;;4.78;;
44446;SDS011;30152;52.066;5.358;2023-04-24T08:43:03;18.92;;;3.92;;
44446;SDS011;30152;52.066;5.358;2023-04-24T08:45:28;21.83;;;4.55;;
44446;SDS011;30152;52.066;5.358;2023-04-24T08:47:54;19.85;;;4.45;;
44446;SDS011;30152;52.066;5.358;2023-04-24T08:50:21;18.05;;;3.65;;
44446;SDS011;30152;52.066;5.358;2023-04-24T08:52:48;17.88;;;3.40;;
44446;SDS011;30152;52.066;5.358;2023-04-24T08:55:15;17.23;;;3.58;;
44446;SDS011;30152;52.066;5.358;2023-04-24T08:57:43;22.63;;;3.72;;
44446;SDS011;30152;52.066;5.358;2023-04-24T09:00:10;17.98;;;3.17;;
44446;SDS011;30152;52.066;5.358;2023-04-24T09:02:36;15.80;;;3.17;;
44446;SDS011;30152;52.066;5.358;2023-04-24T09:05:05;14.13;;;3.15;;
44446;SDS011;30152;52.066;5.358;2023-04-24T09:07:32;15.18;;;2.63;;
44446;SDS011;30152;52.066;5.358;2023-04-24T09:10:01;16.15;;;3.05;;
44446;SDS011;30152;52.066;5.358;2023-04-24T09:12:27;18.98;;;3.15;;
44446;SDS011;30152;52.066;5.358;2023-04-24T09:14:53;17.10;;;3.20;;
44446;SDS011;30152;52.066;5.358;2023-04-24T09:17:20;17.15;;;3.60;;
44446;SDS011;30152;52.066;5.358;2023-04-24T09:19:47;14.02;;;2.83;;
44446;SDS011;30152;52.066;5.358;2023-04-24T09:22:13;14.55;;;3.00;;
44446;SDS011;30152;52.066;5.358;2023-04-24T09:24:40;28.35;;;3.72;;
44446;SDS011;30152;52.066;5.358;2023-04-24T09:27:06;13.30;;;3.13;;
44446;SDS011;30152;52.066;5.358;2023-04-24T09:29:32;23.77;;;3.88;;
44446;SDS011;30152;52.066;5.358;2023-04-24T09:31:58;14.70;;;2.95;;
44446;SDS011;30152;52.066;5.358;2023-04-24T09:34:25;13.77;;;2.70;;
44446;SDS011;30152;52.066;5.358;2023-04-24T09:36:51;11.77;;;2.88;;
44446;SDS011;30152;52.066;5.358;2023-04-24T09:39:17;19.98;;;2.65;;
44446;SDS011;30152;52.066;5.358;2023-04-24T09:41:54;15.85;;;2.90;;
44446;SDS011;30152;52.066;5.358;2023-04-24T09:44:23;19.80;;;3.13;;
44446;SDS011;30152;52.066;5.358;2023-04-24T09:46:50;15.10;;;3.00;;
44446;SDS011;30152;52.066;5.358;2023-04-24T09:49:22;13.10;;;3.13;;
44446;SDS011;30152;52.066;5.358;2023-04-24T09:51:49;16.92;;;3.15;;
44446;SDS011;30152;52.066;5.358;2023-04-24T09:54:15;12.98;;;2.72;;
44446;SDS011;30152;52.066;5.358;2023-04-24T09:56:46;9.20;;;2.42;;
44446;SDS011;30152;52.066;5.358;2023-04-24T09:59:14;14.90;;;2.63;;
44446;SDS011;30152;52.066;5.358;2023-04-24T10:01:40;11.95;;;2.45;;
44446;SDS011;30152;52.066;5.358;2023-04-24T10:04:15;14.48;;;2.50;;
44446;SDS011;30152;52.066;5.358;2023-04-24T10:06:42;14.00;;;2.70;;
44446;SDS011;30152;52.066;5.358;2023-04-24T10:09:08;12.20;;;2.38;;
44446;SDS011;30152;52.066;5.358;2023-04-24T10:11:36;10.50;;;2.08;;
44446;SDS011;30152;52.066;5.358;2023-04-24T10:14:02;11.50;;;2.28;;
44446;SDS011;30152;52.066;5.358;2023-04-24T10:16:29;8.52;;;2.13;;
44446;SDS011;30152;52.066;5.358;2023-04-24T10:18:56;15.57;;;2.83;;
44446;SDS011;30152;52.066;5.358;2023-04-24T10:21:24;12.60;;;2.17;;
44446;SDS011;30152;52.066;5.358;2023-04-24T10:23:51;9.15;;;1.75;;
44446;SDS011;30152;52.066;5.358;2023-04-24T10:26:19;8.18;;;1.90;;
44446;SDS011;30152;52.066;5.358;2023-04-24T10:28:45;9.27;;;2.00;;
44446;SDS011;30152;52.066;5.358;2023-04-24T10:31:11;9.77;;;1.70;;
44446;SDS011;30152;52.066;5.358;2023-04-24T10:33:38;10.00;;;1.75;;
44446;SDS011;30152;52.066;5.358;2023-04-24T10:36:08;7.70;;;2.22;;
44446;SDS011;30152;52.066;5.358;2023-04-24T10:38:36;11.18;;;1.40;;
44446;SDS011;30152;52.066;5.358;2023-04-24T10:41:08;8.65;;;1.30;;
44446;SDS011;30152;52.066;5.358;2023-04-24T10:43:39;5.07;;;1.17;;
44446;SDS011;30152;52.066;5.358;2023-04-24T10:46:05;6.88;;;1.30;;
44446;SDS011;30152;52.066;5.358;2023-04-24T10:48:31;6.55;;;0.95;;
44446;SDS011;30152;52.066;5.358;2023-04-24T10:50:58;6.72;;;0.93;;
44446;SDS011;30152;52.066;5.358;2023-04-24T10:53:24;6.72;;;0.88;;
44446;SDS011;30152;52.066;5.358;2023-04-24T10:58:42;4.22;;;0.73;;
44446;SDS011;30152;52.066;5.358;2023-04-24T11:01:29;3.97;;;1.13;;
44446;SDS011;30152;52.066;5.358;2023-04-24T11:03:58;4.07;;;0.77;;
44446;SDS011;30152;52.066;5.358;2023-04-24T11:06:34;3.72;;;0.65;;
44446;SDS011;30152;52.066;5.358;2023-04-24T11:09:07;6.97;;;0.93;;
44446;SDS011;30152;52.066;5.358;2023-04-24T11:11:35;4.60;;;0.82;;
44446;SDS011;30152;52.066;5.358;2023-04-24T11:14:13;5.43;;;0.90;;
44446;SDS011;30152;52.066;5.358;2023-04-24T11:16:44;9.85;;;1.67;;
44446;SDS011;30152;52.066;5.358;2023-04-24T11:29:46;4.70;;;1.13;;
44446;SDS011;30152;52.066;5.358;2023-04-24T11:37:25;11.07;;;1.50;;
44446;SDS011;30152;52.066;5.358;2023-04-24T11:42:23;5.07;;;1.13;;
44446;SDS011;30152;52.066;5.358;2023-04-24T11:44:51;6.60;;;1.42;;
44446;SDS011;30152;52.066;5.358;2023-04-24T11:47:18;10.35;;;1.13;;
44446;SDS011;30152;52.066;5.358;2023-04-24T11:49:43;7.25;;;1.52;;
44446;SDS011;30152;52.066;5.358;2023-04-24T11:52:09;5.80;;;0.63;;
44446;SDS011;30152;52.066;5.358;2023-04-24T11:54:36;5.55;;;0.77;;
44446;SDS011;30152;52.066;5.358;2023-04-24T11:57:05;8.43;;;0.85;;
44446;SDS011;30152;52.066;5.358;2023-04-24T11:59:35;4.70;;;0.77;;
44446;SDS011;30152;52.066;5.358;2023-04-24T12:02:02;2.25;;;0.70;;
44446;SDS011;30152;52.066;5.358;2023-04-24T12:04:37;7.28;;;0.75;;
44446;SDS011;30152;52.066;5.358;2023-04-24T12:07:04;7.68;;;0.68;;
44446;SDS011;30152;52.066;5.358;2023-04-24T12:09:43;5.85;;;0.80;;
44446;SDS011;30152;52.066;5.358;2023-04-24T12:12:13;7.22;;;0.90;;
44446;SDS011;30152;52.066;5.358;2023-04-24T12:14:44;3.45;;;0.60;;
44446;SDS011;30152;52.066;5.358;2023-04-24T12:17:15;5.00;;;1.02;;
44446;SDS011;30152;52.066;5.358;2023-04-24T12:19:47;8.63;;;1.23;;
44446;SDS011;30152;52.066;5.358;2023-04-24T12:22:13;7.00;;;1.20;;
44446;SDS011;30152;52.066;5.358;2023-04-24T12:24:55;11.88;;;1.52;;
44446;SDS011;30152;52.066;5.358;2023-04-24T12:27:21;8.10;;;1.17;;
44446;SDS011;30152;52.066;5.358;2023-04-24T12:29:55;6.40;;;0.82;;
44446;SDS011;30152;52.066;5.358;2023-04-24T12:32:21;10.70;;;1.70;;
44446;SDS011;30152;52.066;5.358;2023-04-24T12:34:49;4.53;;;1.10;;
44446;SDS011;30152;52.066;5.358;2023-04-24T12:37:15;10.23;;;1.17;;
44446;SDS011;30152;52.066;5.358;2023-04-24T12:39:44;9.32;;;1.13;;
44446;SDS011;30152;52.066;5.358;2023-04-24T12:42:33;8.20;;;1.35;;
44446;SDS011;30152;52.066;5.358;2023-04-24T12:45:00;7.15;;;1.05;;
44446;SDS011;30152;52.066;5.358;2023-04-24T12:47:28;11.65;;;1.88;;
44446;SDS011;30152;52.066;5.358;2023-04-24T12:49:54;15.68;;;2.08;;
44446;SDS011;30152;52.066;5.358;2023-04-24T12:52:21;9.38;;;1.42;;
44446;SDS011;30152;52.066;5.358;2023-04-24T12:54:48;9.18;;;1.85;;
44446;SDS011;30152;52.066;5.358;2023-04-24T12:57:15;7.18;;;1.27;;
44446;SDS011;30152;52.066;5.358;2023-04-24T12:59:41;9.82;;;1.80;;
44446;SDS011;30152;52.066;5.358;2023-04-24T13:02:06;7.03;;;1.55;;
44446;SDS011;30152;52.066;5.358;2023-04-24T13:04:33;10.90;;;2.13;;
44446;SDS011;30152;52.066;5.358;2023-04-24T13:06:59;10.80;;;2.28;;
44446;SDS011;30152;52.066;5.358;2023-04-24T13:09:25;7.57;;;1.90;;
44446;SDS011;30152;52.066;5.358;2023-04-24T13:11:51;13.35;;;2.35;;
44446;SDS011;30152;52.066;5.358;2023-04-24T13:14:17;12.20;;;1.80;;
44446;SDS011;30152;52.066;5.358;2023-04-24T13:16:42;9.25;;;1.95;;
44446;SDS011;30152;52.066;5.358;2023-04-24T13:19:08;7.32;;;1.60;;
44446;SDS011;30152;52.066;5.358;2023-04-24T13:21:34;11.52;;;2.05;;
44446;SDS011;30152;52.066;5.358;2023-04-24T13:24:00;13.38;;;1.80;;
44446;SDS011;30152;52.066;5.358;2023-04-24T13:26:26;11.27;;;2.05;;
44446;SDS011;30152;52.066;5.358;2023-04-24T13:28:52;12.68;;;1.63;;
44446;SDS011;30152;52.066;5.358;2023-04-24T13:31:18;16.67;;;2.45;;
44446;SDS011;30152;52.066;5.358;2023-04-24T13:33:43;13.68;;;1.88;;
44446;SDS011;30152;52.066;5.358;2023-04-24T13:36:08;14.38;;;2.67;;
44446;SDS011;30152;52.066;5.358;2023-04-24T13:38:34;17.40;;;2.40;;
44446;SDS011;30152;52.066;5.358;2023-04-24T13:41:00;12.05;;;2.63;;
44446;SDS011;30152;52.066;5.358;2023-04-24T13:43:26;15.50;;;2.72;;
44446;SDS011;30152;52.066;5.358;2023-04-24T13:45:52;16.08;;;2.63;;
44446;SDS011;30152;52.066;5.358;2023-04-24T13:48:18;12.65;;;2.05;;
44446;SDS011;30152;52.066;5.358;2023-04-24T13:50:43;16.92;;;3.40;;
44446;SDS011;30152;52.066;5.358;2023-04-24T13:53:09;12.73;;;2.70;;
44446;SDS011;30152;52.066;5.358;2023-04-24T13:55:35;11.55;;;2.28;;
44446;SDS011;30152;52.066;5.358;2023-04-24T13:58:01;13.48;;;1.90;;
44446;SDS011;30152;52.066;5.358;2023-04-24T14:00:27;12.57;;;2.60;;
44446;SDS011;30152;52.066;5.358;2023-04-24T14:02:53;8.43;;;2.10;;
44446;SDS011;30152;52.066;5.358;2023-04-24T14:05:19;15.90;;;2.13;;
44446;SDS011;30152;52.066;5.358;2023-04-24T14:07:46;11.77;;;2.25;;
44446;SDS011;30152;52.066;5.358;2023-04-24T14:10:12;10.48;;;2.08;;
44446;SDS011;30152;52.066;5.358;2023-04-24T14:12:38;9.90;;;2.20;;
44446;SDS011;30152;52.066;5.358;2023-04-24T14:15:04;10.27;;;2.35;;
44446;SDS011;30152;52.066;5.358;2023-04-24T14:17:30;13.55;;;3.22;;
44446;SDS011;30152;52.066;5.358;2023-04-24T14:19:56;12.55;;;2.80;;
44446;SDS011;30152;52.066;5.358;2023-04-24T14:22:21;13.82;;;2.47;;
44446;SDS011;30152;52.066;5.358;2023-04-24T14:24:47;13.38;;;3.47;;
44446;SDS011;30152;52.066;5.358;2023-04-24T14:27:13;13.05;;;2.60;;
44446;SDS011;30152;52.066;5.358;2023-04-24T14:29:38;16.17;;;2.65;;
44446;SDS011;30152;52.066;5.358;2023-04-24T14:32:04;15.55;;;3.15;;
44446;SDS011;30152;52.066;5.358;2023-04-24T14:34:30;13.02;;;2.70;;
44446;SDS011;30152;52.066;5.358;2023-04-24T14:36:56;10.10;;;2.70;;
44446;SDS011;30152;52.066;5.358;2023-04-24T14:39:21;10.82;;;2.65;;
44446;SDS011;30152;52.066;5.358;2023-04-24T14:41:47;15.07;;;3.50;;
44446;SDS011;30152;52.066;5.358;2023-04-24T14:44:13;12.13;;;2.75;;
44446;SDS011;30152;52.066;5.358;2023-04-24T14:46:39;10.90;;;2.50;;
44446;SDS011;30152;52.066;5.358;2023-04-24T14:49:04;15.40;;;3.13;;
44446;SDS011;30152;52.066;5.358;2023-04-24T14:51:30;16.27;;;2.90;;
44446;SDS011;30152;52.066;5.358;2023-04-24T14:53:56;13.68;;;2.85;;
44446;SDS011;30152;52.066;5.358;2023-04-24T14:56:21;11.43;;;2.50;;
44446;SDS011;30152;52.066;5.358;2023-04-24T14:58:48;16.02;;;2.90;;
44446;SDS011;30152;52.066;5.358;2023-04-24T15:01:14;13.52;;;3.65;;
44446;SDS011;30152;52.066;5.358;2023-04-24T15:03:40;15.00;;;4.00;;
44446;SDS011;30152;52.066;5.358;2023-04-24T15:06:06;15.30;;;2.95;;
44446;SDS011;30152;52.066;5.358;2023-04-24T15:08:31;11.27;;;3.08;;
44446;SDS011;30152;52.066;5.358;2023-04-24T15:10:57;12.57;;;3.20;;
44446;SDS011;30152;52.066;5.358;2023-04-24T15:13:23;15.45;;;2.90;;
44446;SDS011;30152;52.066;5.358;2023-04-24T15:15:49;17.52;;;3.00;;
44446;SDS011;30152;52.066;5.358;2023-04-24T15:18:15;15.23;;;3.40;;
44446;SDS011;30152;52.066;5.358;2023-04-24T15:20:40;10.65;;;3.13;;
44446;SDS011;30152;52.066;5.358;2023-04-24T15:23:10;12.48;;;2.50;;
44446;SDS011;30152;52.066;5.358;2023-04-24T15:25:36;12.48;;;2.97;;
44446;SDS011;30152;52.066;5.358;2023-04-24T15:28:02;16.98;;;3.28;;
44446;SDS011;30152;52.066;5.358;2023-04-24T15:30:28;15.43;;;3.08;;
44446;SDS011;30152;52.066;5.358;2023-04-24T15:32:54;22.67;;;3.58;;
44446;SDS011;30152;52.066;5.358;2023-04-24T15:35:20;20.52;;;4.32;;
44446;SDS011;30152;52.066;5.358;2023-04-24T15:37:46;13.43;;;3.38;;
44446;SDS011;30152;52.066;5.358;2023-04-24T15:40:12;12.65;;;3.78;;
44446;SDS011;30152;52.066;5.358;2023-04-24T15:42:40;18.55;;;3.63;;
44446;SDS011;30152;52.066;5.358;2023-04-24T15:45:06;15.20;;;3.60;;
44446;SDS011;30152;52.066;5.358;2023-04-24T15:47:32;10.63;;;3.08;;
44446;SDS011;30152;52.066;5.358;2023-04-24T15:49:58;15.20;;;3.25;;
44446;SDS011;30152;52.066;5.358;2023-04-24T15:52:23;18.35;;;3.40;;
44446;SDS011;30152;52.066;5.358;2023-04-24T15:54:49;18.10;;;3.70;;
44446;SDS011;30152;52.066;5.358;2023-04-24T15:57:15;15.40;;;3.92;;
44446;SDS011;30152;52.066;5.358;2023-04-24T15:59:41;18.70;;;4.30;;
44446;SDS011;30152;52.066;5.358;2023-04-24T16:02:09;13.60;;;2.92;;
44446;SDS011;30152;52.066;5.358;2023-04-24T16:04:42;11.70;;;3.40;;
44446;SDS011;30152;52.066;5.358;2023-04-24T16:07:08;9.57;;;2.80;;
44446;SDS011;30152;52.066;5.358;2023-04-24T16:09:34;11.60;;;2.90;;
44446;SDS011;30152;52.066;5.358;2023-04-24T16:12:00;15.13;;;3.20;;
44446;SDS011;30152;52.066;5.358;2023-04-24T16:14:26;14.90;;;2.97;;
44446;SDS011;30152;52.066;5.358;2023-04-24T16:16:52;12.38;;;2.83;;
44446;SDS011;30152;52.066;5.358;2023-04-24T16:19:19;13.85;;;2.70;;
44446;SDS011;30152;52.066;5.358;2023-04-24T16:21:45;10.70;;;2.88;;
44446;SDS011;30152;52.066;5.358;2023-04-24T16:24:10;17.30;;;4.03;;
44446;SDS011;30152;52.066;5.358;2023-04-24T16:26:36;10.02;;;2.83;;
44446;SDS011;30152;52.066;5.358;2023-04-24T16:29:02;16.05;;;3.45;;
44446;SDS011;30152;52.066;5.358;2023-04-24T16:31:27;12.77;;;3.45;;
44446;SDS011;30152;52.066;5.358;2023-04-24T16:33:53;14.63;;;2.75;;
44446;SDS011;30152;52.066;5.358;2023-04-24T16:36:19;19.08;;;3.40;;
44446;SDS011;30152;52.066;5.358;2023-04-24T16:38:45;13.65;;;2.85;;
44446;SDS011;30152;52.066;5.358;2023-04-24T16:41:12;14.70;;;2.72;;
44446;SDS011;30152;52.066;5.358;2023-04-24T16:43:38;11.23;;;3.10;;
44446;SDS011;30152;52.066;5.358;2023-04-24T16:46:05;14.95;;;3.03;;
44446;SDS011;30152;52.066;5.358;2023-04-24T16:48:31;19.52;;;4.35;;
44446;SDS011;30152;52.066;5.358;2023-04-24T16:50:57;13.15;;;3.58;;
44446;SDS011;30152;52.066;5.358;2023-04-24T16:53:23;14.70;;;3.35;;
44446;SDS011;30152;52.066;5.358;2023-04-24T16:55:49;15.45;;;3.40;;
44446;SDS011;30152;52.066;5.358;2023-04-24T16:58:15;12.60;;;3.13;;
44446;SDS011;30152;52.066;5.358;2023-04-24T17:00:41;12.25;;;3.35;;
44446;SDS011;30152;52.066;5.358;2023-04-24T17:03:07;15.73;;;3.95;;
44446;SDS011;30152;52.066;5.358;2023-04-24T17:05:33;13.23;;;3.55;;
44446;SDS011;30152;52.066;5.358;2023-04-24T17:07:59;15.48;;;3.35;;
44446;SDS011;30152;52.066;5.358;2023-04-24T17:10:25;19.00;;;4.15;;
44446;SDS011;30152;52.066;5.358;2023-04-24T17:12:51;14.77;;;3.83;;
44446;SDS011;30152;52.066;5.358;2023-04-24T17:15:17;13.75;;;3.67;;
44446;SDS011;30152;52.066;5.358;2023-04-24T17:17:43;15.52;;;3.92;;
44446;SDS011;30152;52.066;5.358;2023-04-24T17:20:10;14.48;;;3.83;;
44446;SDS011;30152;52.066;5.358;2023-04-24T17:22:36;15.20;;;3.90;;
44446;SDS011;30152;52.066;5.358;2023-04-24T17:25:02;21.38;;;3.80;;
44446;SDS011;30152;52.066;5.358;2023-04-24T17:27:28;15.60;;;3.78;;
44446;SDS011;30152;52.066;5.358;2023-04-24T17:29:53;16.50;;;3.70;;
44446;SDS011;30152;52.066;5.358;2023-04-24T17:32:19;14.95;;;3.15;;
44446;SDS011;30152;52.066;5.358;2023-04-24T17:34:45;18.08;;;4.07;;
44446;SDS011;30152;52.066;5.358;2023-04-24T17:37:12;15.98;;;3.92;;
44446;SDS011;30152;52.066;5.358;2023-04-24T17:39:38;18.45;;;3.58;;
44446;SDS011;30152;52.066;5.358;2023-04-24T17:42:04;15.30;;;2.67;;
44446;SDS011;30152;52.066;5.358;2023-04-24T17:44:30;16.13;;;4.32;;
44446;SDS011;30152;52.066;5.358;2023-04-24T17:46:56;13.70;;;3.05;;
44446;SDS011;30152;52.066;5.358;2023-04-24T17:49:23;17.98;;;4.07;;
44446;SDS011;30152;52.066;5.358;2023-04-24T17:51:49;15.30;;;3.17;;
44446;SDS011;30152;52.066;5.358;2023-04-24T17:54:14;24.40;;;4.35;;
44446;SDS011;30152;52.066;5.358;2023-04-24T17:56:40;15.27;;;3.80;;
44446;SDS011;30152;52.066;5.358;2023-04-24T17:59:06;15.43;;;3.85;;
44446;SDS011;30152;52.066;5.358;2023-04-24T18:01:32;12.25;;;3.53;;
44446;SDS011;30152;52.066;5.358;2023-04-24T18:03:58;19.02;;;3.58;;
44446;SDS011;30152;52.066;5.358;2023-04-24T18:06:24;14.48;;;3.63;;
44446;SDS011;30152;52.066;5.358;2023-04-24T18:08:50;13.27;;;3.67;;
44446;SDS011;30152;52.066;5.358;2023-04-24T18:11:16;21.95;;;3.65;;
44446;SDS011;30152;52.066;5.358;2023-04-24T18:13:42;22.55;;;4.05;;
44446;SDS011;30152;52.066;5.358;2023-04-24T18:16:10;20.30;;;3.95;;
44446;SDS011;30152;52.066;5.358;2023-04-24T18:18:35;15.25;;;3.65;;
44446;SDS011;30152;52.066;5.358;2023-04-24T18:21:01;17.05;;;3.47;;
44446;SDS011;30152;52.066;5.358;2023-04-24T18:23:27;19.80;;;3.90;;
44446;SDS011;30152;52.066;5.358;2023-04-24T18:25:52;16.63;;;4.20;;
44446;SDS011;30152;52.066;5.358;2023-04-24T18:28:18;16.33;;;3.60;;
44446;SDS011;30152;52.066;5.358;2023-04-24T18:30:43;19.15;;;3.85;;
44446;SDS011;30152;52.066;5.358;2023-04-24T18:33:09;17.52;;;4.03;;
44446;SDS011;30152;52.066;5.358;2023-04-24T18:35:36;18.85;;;3.75;;
44446;SDS011;30152;52.066;5.358;2023-04-24T18:38:01;15.75;;;4.20;;
44446;SDS011;30152;52.066;5.358;2023-04-24T18:40:27;17.92;;;3.30;;
44446;SDS011;30152;52.066;5.358;2023-04-24T18:42:52;16.65;;;4.00;;
44446;SDS011;30152;52.066;5.358;2023-04-24T18:45:19;10.25;;;2.95;;
44446;SDS011;30152;52.066;5.358;2023-04-24T18:47:45;15.75;;;3.45;;
44446;SDS011;30152;52.066;5.358;2023-04-24T18:50:11;20.48;;;3.97;;
44446;SDS011;30152;52.066;5.358;2023-04-24T18:52:37;16.60;;;3.42;;
44446;SDS011;30152;52.066;5.358;2023-04-24T18:55:03;19.58;;;3.88;;
44446;SDS011;30152;52.066;5.358;2023-04-24T18:57:30;16.77;;;3.30;;
44446;SDS011;30152;52.066;5.358;2023-04-24T18:59:56;26.08;;;3.95;;
44446;SDS011;30152;52.066;5.358;2023-04-24T19:02:22;17.48;;;3.97;;
44446;SDS011;30152;52.066;5.358;2023-04-24T19:04:48;17.40;;;3.80;;
44446;SDS011;30152;52.066;5.358;2023-04-24T19:07:14;19.40;;;3.97;;
44446;SDS011;30152;52.066;5.358;2023-04-24T19:09:40;16.67;;;3.60;;
44446;SDS011;30152;52.066;5.358;2023-04-24T19:12:05;16.63;;;3.47;;
44446;SDS011;30152;52.066;5.358;2023-04-24T19:14:31;15.88;;;3.05;;
44446;SDS011;30152;52.066;5.358;2023-04-24T19:16:57;25.17;;;4.35;;
44446;SDS011;30152;52.066;5.358;2023-04-24T19:19:23;12.13;;;2.80;;
44446;SDS011;30152;52.066;5.358;2023-04-24T19:21:50;16.90;;;3.30;;
44446;SDS011;30152;52.066;5.358;2023-04-24T19:24:15;12.07;;;2.53;;
44446;SDS011;30152;52.066;5.358;2023-04-24T19:26:43;29.25;;;4.35;;
44446;SDS011;30152;52.066;5.358;2023-04-24T19:29:09;11.50;;;2.67;;
44446;SDS011;30152;52.066;5.358;2023-04-24T19:31:35;15.07;;;3.47;;
44446;SDS011;30152;52.066;5.358;2023-04-24T19:34:01;9.40;;;2.00;;
44446;SDS011;30152;52.066;5.358;2023-04-24T19:36:28;14.10;;;2.45;;
44446;SDS011;30152;52.066;5.358;2023-04-24T19:38:55;12.05;;;2.67;;
44446;SDS011;30152;52.066;5.358;2023-04-24T19:41:21;12.10;;;2.70;;
44446;SDS011;30152;52.066;5.358;2023-04-24T19:43:46;19.73;;;2.80;;
44446;SDS011;30152;52.066;5.358;2023-04-24T19:46:13;12.10;;;2.40;;
44446;SDS011;30152;52.066;5.358;2023-04-24T19:48:39;5.93;;;1.70;;
44446;SDS011;30152;52.066;5.358;2023-04-24T19:51:05;12.30;;;2.10;;
44446;SDS011;30152;52.066;5.358;2023-04-24T19:53:31;10.63;;;1.77;;
44446;SDS011;30152;52.066;5.358;2023-04-24T19:55:57;8.52;;;2.10;;
44446;SDS011;30152;52.066;5.358;2023-04-24T19:58:23;5.63;;;1.48;;
44446;SDS011;30152;52.066;5.358;2023-04-24T20:00:48;8.00;;;1.48;;
44446;SDS011;30152;52.066;5.358;2023-04-24T20:03:15;8.93;;;1.42;;
44446;SDS011;30152;52.066;5.358;2023-04-24T20:05:41;4.18;;;0.88;;
44446;SDS011;30152;52.066;5.358;2023-04-24T20:08:07;12.98;;;1.50;;
44446;SDS011;30152;52.066;5.358;2023-04-24T20:10:34;5.00;;;0.90;;
44446;SDS011;30152;52.066;5.358;2023-04-24T20:13:01;6.05;;;0.88;;
44446;SDS011;30152;52.066;5.358;2023-04-24T20:15:27;7.18;;;1.25;;
44446;SDS011;30152;52.066;5.358;2023-04-24T20:17:52;6.22;;;1.15;;
44446;SDS011;30152;52.066;5.358;2023-04-24T20:20:18;7.22;;;1.27;;
44446;SDS011;30152;52.066;5.358;2023-04-24T20:22:44;5.88;;;1.38;;
44446;SDS011;30152;52.066;5.358;2023-04-24T20:25:10;6.57;;;1.40;;
44446;SDS011;30152;52.066;5.358;2023-04-24T20:27:39;9.55;;;1.17;;
44446;SDS011;30152;52.066;5.358;2023-04-24T20:30:05;9.35;;;1.58;;
44446;SDS011;30152;52.066;5.358;2023-04-24T20:32:36;10.15;;;1.65;;
44446;SDS011;30152;52.066;5.358;2023-04-24T20:35:02;8.07;;;1.63;;
44446;SDS011;30152;52.066;5.358;2023-04-24T20:37:28;7.20;;;1.63;;
44446;SDS011;30152;52.066;5.358;2023-04-24T20:39:54;9.70;;;1.35;;
44446;SDS011;30152;52.066;5.358;2023-04-24T20:42:21;8.73;;;1.65;;
44446;SDS011;30152;52.066;5.358;2023-04-24T20:44:47;12.98;;;2.30;;
44446;SDS011;30152;52.066;5.358;2023-04-24T20:47:13;12.35;;;2.20;;
44446;SDS011;30152;52.066;5.358;2023-04-24T20:49:38;8.98;;;1.67;;
44446;SDS011;30152;52.066;5.358;2023-04-24T20:52:04;7.53;;;1.55;;
44446;SDS011;30152;52.066;5.358;2023-04-24T20:54:30;7.15;;;1.48;;
44446;SDS011;30152;52.066;5.358;2023-04-24T20:56:56;6.63;;;1.70;;
44446;SDS011;30152;52.066;5.358;2023-04-24T20:59:22;5.80;;;1.35;;
44446;SDS011;30152;52.066;5.358;2023-04-24T21:01:48;15.23;;;1.77;;
